createdAt,value
2018-07-13T00:00:02.371Z,23.83
2018-07-13T00:02:08.556Z,24.04
2018-07-13T00:04:13.794Z,24.02
2018-07-13T00:06:18.378Z,24.17
2018-07-13T00:08:23.443Z,24.09
2018-07-13T00:10:26.992Z,23.90
2018-07-13T00:12:31.170Z,23.51
2018-07-13T00:14:34.824Z,23.54
2018-07-13T00:16:38.367Z,24.00
2018-07-13T00:18:42.511Z,23.94
2018-07-13T00:20:46.054Z,23.75
2018-07-13T00:24:58.390Z,23.40
2018-07-13T00:27:02.147Z,23.62
2018-07-13T00:29:09.406Z,23.57
2018-07-13T00:31:15.944Z,23.95
2018-07-13T00:33:23.474Z,24.23
2018-07-13T00:35:27.000Z,24.19
2018-07-13T00:37:31.097Z,23.91
2018-07-13T00:39:34.867Z,23.24
2018-07-13T00:41:38.610Z,23.36
2018-07-13T00:43:42.921Z,23.24
2018-07-13T00:45:46.410Z,23.34
2018-07-13T00:47:50.111Z,23.45
2018-07-13T00:49:54.662Z,23.68
2018-07-13T00:51:58.366Z,23.32
2018-07-13T00:54:02.264Z,22.97
2018-07-13T00:56:08.327Z,23.16
2018-07-13T00:58:14.507Z,23.26
2018-07-13T01:00:25.064Z,23.51
2018-07-13T01:02:29.224Z,23.41
2018-07-13T01:04:33.063Z,23.26
2018-07-13T01:06:36.840Z,23.07
2018-07-13T01:08:40.630Z,23.26
2018-07-13T01:10:45.142Z,23.18
2018-07-13T01:12:48.902Z,22.99
2018-07-13T01:14:54.091Z,23.24
2018-07-13T01:16:57.871Z,23.01
2018-07-13T01:19:01.828Z,22.97
2018-07-13T01:21:07.912Z,22.89
2018-07-13T01:23:14.984Z,23.02
2018-07-13T01:25:20.681Z,23.10
2018-07-13T01:27:28.625Z,23.38
2018-07-13T01:29:32.866Z,23.21
2018-07-13T01:31:36.629Z,23.34
2018-07-13T01:33:41.397Z,22.98
2018-07-13T01:35:45.576Z,23.20
2018-07-13T01:37:49.557Z,23.38
2018-07-13T01:39:54.205Z,23.02
2018-07-13T01:42:00.073Z,23.17
2018-07-13T01:44:04.823Z,22.95
2018-07-13T01:46:13.029Z,23.03
2018-07-13T01:48:23.748Z,23.18
2018-07-13T01:50:27.934Z,23.48
2018-07-13T01:52:31.864Z,23.64
2018-07-13T01:54:35.716Z,23.39
2018-07-13T01:56:39.510Z,23.02
2018-07-13T01:58:43.812Z,23.36
2018-07-13T02:00:47.609Z,23.20
2018-07-13T02:02:51.430Z,22.87
2018-07-13T02:04:55.701Z,22.86
2018-07-13T02:06:59.497Z,22.78
2018-07-13T02:09:03.095Z,23.00
2018-07-13T02:11:10.349Z,22.89
2018-07-13T02:13:16.400Z,22.64
2018-07-13T02:15:21.113Z,22.88
2018-07-13T02:17:26.449Z,23.19
2018-07-13T02:19:30.506Z,23.26
2018-07-13T02:21:34.346Z,23.23
2018-07-13T02:23:38.534Z,23.02
2018-07-13T02:25:42.358Z,23.03
2018-07-13T02:27:45.865Z,22.87
2018-07-13T02:29:50.414Z,22.98
2018-07-13T02:31:54.264Z,22.60
2018-07-13T02:33:58.468Z,22.51
2018-07-13T02:36:03.381Z,22.54
2018-07-13T02:38:11.455Z,22.48
2018-07-13T02:40:20.075Z,22.62
2018-07-13T02:42:26.259Z,22.58
2018-07-13T02:44:31.128Z,22.57
2018-07-13T02:46:34.754Z,22.61
2018-07-13T02:48:39.046Z,22.55
2018-07-13T02:50:42.882Z,22.57
2018-07-13T02:52:46.899Z,22.50
2018-07-13T02:54:51.152Z,22.42
2018-07-13T02:56:54.814Z,22.42
2018-07-13T02:58:58.370Z,22.50
2018-07-13T03:01:02.738Z,22.66
2018-07-13T03:03:10.046Z,22.89
2018-07-13T03:05:15.429Z,22.89
2018-07-13T03:07:21.958Z,22.94
2018-07-13T03:09:26.837Z,23.14
2018-07-13T03:11:30.567Z,23.22
2018-07-13T03:13:34.679Z,23.34
2018-07-13T03:15:38.254Z,23.29
2018-07-13T03:17:41.840Z,23.02
2018-07-13T03:19:45.895Z,23.22
2018-07-13T03:21:49.608Z,22.68
2018-07-13T03:23:53.288Z,22.75
2018-07-13T03:25:58.363Z,22.67
2018-07-13T03:28:02.017Z,22.67
2018-07-13T03:30:06.074Z,22.50
2018-07-13T03:32:14.207Z,22.18
2018-07-13T03:34:22.467Z,22.27
2018-07-13T03:36:26.173Z,22.16
2018-07-13T03:38:30.236Z,22.24
2018-07-13T03:40:33.949Z,22.10
2018-07-13T03:42:37.869Z,22.35
2018-07-13T03:44:42.156Z,22.32
2018-07-13T03:46:45.831Z,22.63
2018-07-13T03:48:49.504Z,23.01
2018-07-13T03:50:53.604Z,23.01
2018-07-13T03:52:57.741Z,22.90
2018-07-13T03:55:01.365Z,23.24
2018-07-13T03:57:06.660Z,23.05
2018-07-13T03:59:14.337Z,22.82
2018-07-13T04:01:20.946Z,22.64
2018-07-13T04:03:25.521Z,22.73
2018-07-13T04:05:29.257Z,22.82
2018-07-13T04:07:33.105Z,22.55
2018-07-13T04:09:37.300Z,22.74
2018-07-13T04:11:40.944Z,23.08
2018-07-13T04:13:45.014Z,23.18
2018-07-13T04:15:49.351Z,22.86
2018-07-13T04:17:53.001Z,22.67
2018-07-13T04:22:52.163Z,22.84
2018-07-13T04:24:55.953Z,22.64
2018-07-13T04:26:59.491Z,22.76
2018-07-13T04:29:03.770Z,22.72
2018-07-13T04:31:10.521Z,22.82
2018-07-13T04:33:15.471Z,22.86
2018-07-13T04:35:20.006Z,22.76
2018-07-13T04:37:24.707Z,22.82
2018-07-13T04:39:28.295Z,22.87
2018-07-13T04:41:32.084Z,23.07
2018-07-13T04:43:35.815Z,23.14
2018-07-13T04:45:39.459Z,22.93
2018-07-13T04:47:43.376Z,23.06
2018-07-13T04:49:47.032Z,23.00
2018-07-13T04:52:53.940Z,23.03
2018-07-13T04:54:57.920Z,22.93
2018-07-13T04:57:01.532Z,22.73
2018-07-13T04:59:05.659Z,22.70
2018-07-13T05:01:12.921Z,22.78
2018-07-13T05:03:23.134Z,23.22
2018-07-13T05:05:27.019Z,23.03
2018-07-13T05:07:31.348Z,22.84
2018-07-13T05:09:34.958Z,22.98
2018-07-13T05:11:39.036Z,23.04
2018-07-13T05:13:43.027Z,23.06
2018-07-13T05:15:46.735Z,22.98
2018-07-13T05:17:50.482Z,23.24
2018-07-13T05:19:54.330Z,22.92
2018-07-13T05:21:57.848Z,23.28
2018-07-13T05:24:01.440Z,23.54
2018-07-13T05:26:07.177Z,23.48
2018-07-13T05:28:14.683Z,23.28
2018-07-13T05:30:21.992Z,23.08
2018-07-13T05:32:26.765Z,23.39
2018-07-13T05:34:30.936Z,23.42
2018-07-13T05:36:34.897Z,23.41
2018-07-13T05:38:38.892Z,23.26
2018-07-13T05:40:42.692Z,23.46
2018-07-13T05:42:46.435Z,23.40
2018-07-13T05:44:50.403Z,23.50
2018-07-13T05:46:53.951Z,23.66
2018-07-13T05:48:57.444Z,23.63
2018-07-13T05:51:01.324Z,23.58
2018-07-13T05:53:06.014Z,23.68
2018-07-13T05:55:13.197Z,23.97
2018-07-13T05:57:18.948Z,23.87
2018-07-13T05:59:23.639Z,24.15
2018-07-13T06:01:27.544Z,24.11
2018-07-13T06:03:31.043Z,24.13
2018-07-13T06:05:34.957Z,24.03
2018-07-13T06:07:38.923Z,24.21
2018-07-13T06:09:42.862Z,24.35
2018-07-13T06:11:46.407Z,24.34
2018-07-13T06:13:50.234Z,24.45
2018-07-13T06:15:54.024Z,24.46
2018-07-13T06:17:57.951Z,24.49
2018-07-13T06:20:01.535Z,24.33
2018-07-13T06:22:08.213Z,24.56
2018-07-13T06:24:14.754Z,24.65
2018-07-13T06:26:22.217Z,24.68
2018-07-13T06:28:26.231Z,24.69
2018-07-13T06:30:29.717Z,24.62
2018-07-13T06:32:33.271Z,24.60
2018-07-13T06:34:37.223Z,24.70
2018-07-13T06:36:40.748Z,24.77
2018-07-13T06:38:44.447Z,24.69
2018-07-13T06:40:48.995Z,24.76
2018-07-13T06:42:52.813Z,24.80
2018-07-13T06:44:56.489Z,25.03
2018-07-13T06:47:00.221Z,25.00
2018-07-13T06:49:05.204Z,25.13
2018-07-13T06:51:12.843Z,25.21
2018-07-13T06:53:20.076Z,25.25
2018-07-13T06:55:24.452Z,25.28
2018-07-13T06:59:39.656Z,25.35
2018-07-13T07:01:44.073Z,25.41
2018-07-13T07:04:54.828Z,25.47
2018-07-13T07:06:59.693Z,25.45
2018-07-13T07:09:03.949Z,25.54
2018-07-13T07:11:12.092Z,25.57
2018-07-13T07:13:28.023Z,25.62
2018-07-13T07:15:31.671Z,25.60
2018-07-13T07:17:35.822Z,25.57
2018-07-13T07:19:39.615Z,25.63
2018-07-13T07:21:44.659Z,25.66
2018-07-13T07:23:48.293Z,25.51
2018-07-13T07:25:52.431Z,25.61
2018-07-13T07:27:56.335Z,25.60
2018-07-13T07:30:00.200Z,25.59
2018-07-13T07:32:04.067Z,25.73
2018-07-13T07:34:11.328Z,25.60
2018-07-13T07:36:17.977Z,25.65
2018-07-13T07:38:26.167Z,25.64
2018-07-13T07:40:29.899Z,25.67
2018-07-13T07:42:34.611Z,25.64
2018-07-13T07:44:38.201Z,25.68
2018-07-13T07:46:42.011Z,25.80
2018-07-13T07:48:46.810Z,25.83
2018-07-13T07:50:51.331Z,25.74
2018-07-13T07:52:56.998Z,25.69
2018-07-13T07:55:00.851Z,25.82
2018-07-13T07:57:05.167Z,25.75
2018-07-13T07:59:12.292Z,25.89
2018-07-13T08:01:19.736Z,25.96
2018-07-13T08:03:25.877Z,26.08
2018-07-13T08:05:30.184Z,26.07
2018-07-13T08:07:34.781Z,26.03
2018-07-13T08:09:38.968Z,26.11
2018-07-13T08:11:42.747Z,26.18
2018-07-13T08:13:46.733Z,26.25
2018-07-13T08:15:50.313Z,26.25
2018-07-13T08:17:53.756Z,26.27
2018-07-13T08:19:57.620Z,26.27
2018-07-13T08:22:10.066Z,26.29
2018-07-13T08:24:22.339Z,26.32
2018-07-13T08:26:28.000Z,26.26
2018-07-13T08:28:32.491Z,26.37
2018-07-13T08:30:42.347Z,26.34
2018-07-13T08:32:46.415Z,26.29
2018-07-13T08:34:49.905Z,26.25
2018-07-13T08:36:53.458Z,26.30
2018-07-13T08:38:57.226Z,26.38
2018-07-13T08:41:15.327Z,26.44
2018-07-13T08:43:23.618Z,26.48
2018-07-13T08:45:28.751Z,26.47
2018-07-13T08:47:32.541Z,26.41
2018-07-13T08:49:38.361Z,26.32
2018-07-13T08:51:42.593Z,26.36
2018-07-13T08:53:46.655Z,26.40
2018-07-13T08:55:50.564Z,26.48
2018-07-13T08:57:54.665Z,26.57
2018-07-13T08:59:58.285Z,26.55
2018-07-13T09:02:01.817Z,26.58
2018-07-13T09:04:08.242Z,26.60
2018-07-13T09:06:16.025Z,26.62
2018-07-13T09:08:22.768Z,26.63
2018-07-13T09:10:26.930Z,26.61
2018-07-13T09:12:31.165Z,26.66
2018-07-13T09:14:34.949Z,26.68
2018-07-13T09:16:39.499Z,26.70
2018-07-13T09:18:43.324Z,26.72
2018-07-13T09:20:46.955Z,26.71
2018-07-13T09:22:50.980Z,26.73
2018-07-13T09:24:54.494Z,26.74
2018-07-13T09:26:58.226Z,26.77
2018-07-13T09:29:02.328Z,26.78
2018-07-13T09:31:08.585Z,26.80
2018-07-13T09:33:15.596Z,26.81
2018-07-13T09:35:23.393Z,26.76
2018-07-13T09:37:27.054Z,26.78
2018-07-13T09:39:31.389Z,26.79
2018-07-13T09:41:35.417Z,26.82
2018-07-13T09:43:39.985Z,26.83
2018-07-13T09:45:43.869Z,26.82
2018-07-13T09:47:50.439Z,26.84
2018-07-13T09:49:54.628Z,26.84
2018-07-13T09:52:01.331Z,26.86
2018-07-13T09:54:09.948Z,26.88
2018-07-13T09:56:32.660Z,26.89
2018-07-13T09:58:38.190Z,26.87
2018-07-13T10:00:47.766Z,26.90
2018-07-13T10:02:53.455Z,26.91
2018-07-13T10:04:57.456Z,26.92
2018-07-13T10:07:01.410Z,26.93
2018-07-13T10:09:09.131Z,26.94
2018-07-13T10:11:17.978Z,26.96
2018-07-13T10:13:25.861Z,26.96
2018-07-13T10:15:29.642Z,26.98
2018-07-13T10:17:34.489Z,27.00
2018-07-13T10:19:39.360Z,27.01
2018-07-13T10:21:48.534Z,27.02
2018-07-13T10:24:02.125Z,27.02
2018-07-13T10:26:11.295Z,27.01
2018-07-13T10:28:19.828Z,27.06
2018-07-13T10:30:24.758Z,27.04
